sensor_id;sensor_type;location;lat;lon;timestamp;P1;durP1;ratioP1;P2;durP2;ratioP2
38972;SDS011;25333;50.762;4.470;2023-05-02T00:02:03;38.00;;;18.77;;
38972;SDS011;25333;50.762;4.470;2023-05-02T00:04:29;28.80;;;16.58;;
38972;SDS011;25333;50.762;4.470;2023-05-02T00:06:55;27.77;;;16.90;;
38972;SDS011;25333;50.762;4.470;2023-05-02T00:09:20;36.05;;;21.85;;
38972;SDS011;25333;50.762;4.470;2023-05-02T00:11:46;34.97;;;19.37;;
38972;SDS011;25333;50.762;4.470;2023-05-02T00:14:12;40.53;;;22.30;;
38972;SDS011;25333;50.762;4.470;2023-05-02T00:16:37;39.80;;;22.97;;
38972;SDS011;25333;50.762;4.470;2023-05-02T00:19:03;41.80;;;23.25;;
38972;SDS011;25333;50.762;4.470;2023-05-02T00:21:29;38.10;;;22.45;;
38972;SDS011;25333;50.762;4.470;2023-05-02T00:23:55;41.47;;;21.50;;
38972;SDS011;25333;50.762;4.470;2023-05-02T00:26:24;42.20;;;22.85;;
38972;SDS011;25333;50.762;4.470;2023-05-02T00:28:51;35.95;;;20.90;;
38972;SDS011;25333;50.762;4.470;2023-05-02T00:31:16;40.57;;;21.73;;
38972;SDS011;25333;50.762;4.470;2023-05-02T00:33:42;36.05;;;21.52;;
38972;SDS011;25333;50.762;4.470;2023-05-02T00:36:14;38.65;;;22.73;;
38972;SDS011;25333;50.762;4.470;2023-05-02T00:38:40;37.50;;;21.00;;
38972;SDS011;25333;50.762;4.470;2023-05-02T00:41:06;38.45;;;21.05;;
38972;SDS011;25333;50.762;4.470;2023-05-02T00:43:31;32.23;;;20.47;;
38972;SDS011;25333;50.762;4.470;2023-05-02T00:45:57;40.58;;;21.83;;
38972;SDS011;25333;50.762;4.470;2023-05-02T00:48:23;37.07;;;20.20;;
38972;SDS011;25333;50.762;4.470;2023-05-02T00:50:49;39.05;;;22.40;;
38972;SDS011;25333;50.762;4.470;2023-05-02T00:53:15;37.38;;;21.08;;
38972;SDS011;25333;50.762;4.470;2023-05-02T00:55:41;34.92;;;21.90;;
38972;SDS011;25333;50.762;4.470;2023-05-02T00:58:10;37.20;;;21.88;;
38972;SDS011;25333;50.762;4.470;2023-05-02T01:03:17;37.55;;;23.52;;
38972;SDS011;25333;50.762;4.470;2023-05-02T01:08:46;27.08;;;18.52;;
38972;SDS011;25333;50.762;4.470;2023-05-02T01:11:27;39.35;;;21.92;;
38972;SDS011;25333;50.762;4.470;2023-05-02T01:14:04;32.83;;;21.92;;
38972;SDS011;25333;50.762;4.470;2023-05-02T01:16:32;36.17;;;22.88;;
38972;SDS011;25333;50.762;4.470;2023-05-02T01:19:04;37.72;;;22.35;;
38972;SDS011;25333;50.762;4.470;2023-05-02T01:21:33;33.15;;;20.65;;
38972;SDS011;25333;50.762;4.470;2023-05-02T01:26:35;30.67;;;18.75;;
38972;SDS011;25333;50.762;4.470;2023-05-02T01:29:11;29.80;;;19.07;;
38972;SDS011;25333;50.762;4.470;2023-05-02T01:31:40;31.80;;;18.70;;
38972;SDS011;25333;50.762;4.470;2023-05-02T01:34:08;25.83;;;17.90;;
38972;SDS011;25333;50.762;4.470;2023-05-02T01:36:35;26.98;;;19.63;;
38972;SDS011;25333;50.762;4.470;2023-05-02T01:39:04;33.00;;;20.27;;
38972;SDS011;25333;50.762;4.470;2023-05-02T01:41:33;29.63;;;17.90;;
38972;SDS011;25333;50.762;4.470;2023-05-02T01:44:00;32.03;;;17.80;;
38972;SDS011;25333;50.762;4.470;2023-05-02T01:46:29;36.20;;;21.27;;
38972;SDS011;25333;50.762;4.470;2023-05-02T01:48:57;32.45;;;19.95;;
38972;SDS011;25333;50.762;4.470;2023-05-02T01:51:27;28.73;;;18.00;;
38972;SDS011;25333;50.762;4.470;2023-05-02T01:54:00;33.33;;;19.77;;
38972;SDS011;25333;50.762;4.470;2023-05-02T01:56:32;31.52;;;18.10;;
38972;SDS011;25333;50.762;4.470;2023-05-02T01:59:01;30.80;;;20.05;;
38972;SDS011;25333;50.762;4.470;2023-05-02T02:01:32;29.65;;;18.13;;
38972;SDS011;25333;50.762;4.470;2023-05-02T02:04:02;27.23;;;18.67;;
38972;SDS011;25333;50.762;4.470;2023-05-02T02:06:30;27.77;;;18.25;;
38972;SDS011;25333;50.762;4.470;2023-05-02T02:08:57;28.30;;;17.88;;
38972;SDS011;25333;50.762;4.470;2023-05-02T02:11:28;27.08;;;16.75;;
38972;SDS011;25333;50.762;4.470;2023-05-02T02:14:01;23.80;;;16.70;;
38972;SDS011;25333;50.762;4.470;2023-05-02T02:16:32;28.67;;;16.80;;
38972;SDS011;25333;50.762;4.470;2023-05-02T02:19:03;27.50;;;16.30;;
38972;SDS011;25333;50.762;4.470;2023-05-02T02:21:34;26.15;;;15.60;;
38972;SDS011;25333;50.762;4.470;2023-05-02T02:24:02;21.80;;;15.23;;
38972;SDS011;25333;50.762;4.470;2023-05-02T02:26:30;22.95;;;14.75;;
38972;SDS011;25333;50.762;4.470;2023-05-02T02:28:56;22.85;;;15.27;;
38972;SDS011;25333;50.762;4.470;2023-05-02T02:31:22;23.80;;;15.57;;
38972;SDS011;25333;50.762;4.470;2023-05-02T02:33:49;23.88;;;14.90;;
38972;SDS011;25333;50.762;4.470;2023-05-02T02:39:19;22.00;;;14.15;;
38972;SDS011;25333;50.762;4.470;2023-05-02T02:44:46;23.10;;;14.43;;
38972;SDS011;25333;50.762;4.470;2023-05-02T02:55:44;19.92;;;13.77;;
38972;SDS011;25333;50.762;4.470;2023-05-02T03:00:51;20.50;;;12.93;;
38972;SDS011;25333;50.762;4.470;2023-05-02T03:03:17;21.70;;;15.10;;
38972;SDS011;25333;50.762;4.470;2023-05-02T03:05:46;21.40;;;14.43;;
38972;SDS011;25333;50.762;4.470;2023-05-02T03:08:13;21.88;;;14.75;;
38972;SDS011;25333;50.762;4.470;2023-05-02T03:10:39;27.75;;;16.13;;
38972;SDS011;25333;50.762;4.470;2023-05-02T03:13:04;25.27;;;14.85;;
38972;SDS011;25333;50.762;4.470;2023-05-02T03:18:18;33.33;;;21.63;;
38972;SDS011;25333;50.762;4.470;2023-05-02T03:20:43;33.88;;;22.48;;
38972;SDS011;25333;50.762;4.470;2023-05-02T03:23:09;30.95;;;20.48;;
38972;SDS011;25333;50.762;4.470;2023-05-02T03:25:35;37.20;;;22.63;;
38972;SDS011;25333;50.762;4.470;2023-05-02T03:28:01;33.75;;;23.00;;
38972;SDS011;25333;50.762;4.470;2023-05-02T03:30:27;40.20;;;26.38;;
38972;SDS011;25333;50.762;4.470;2023-05-02T03:32:52;37.50;;;24.80;;
38972;SDS011;25333;50.762;4.470;2023-05-02T03:35:18;36.92;;;23.50;;
38972;SDS011;25333;50.762;4.470;2023-05-02T03:37:44;33.07;;;19.90;;
38972;SDS011;25333;50.762;4.470;2023-05-02T03:40:10;32.90;;;21.95;;
38972;SDS011;25333;50.762;4.470;2023-05-02T03:42:36;37.80;;;24.85;;
38972;SDS011;25333;50.762;4.470;2023-05-02T03:45:08;33.42;;;22.10;;
38972;SDS011;25333;50.762;4.470;2023-05-02T03:47:34;29.75;;;19.67;;
38972;SDS011;25333;50.762;4.470;2023-05-02T03:50:00;32.80;;;19.37;;
38972;SDS011;25333;50.762;4.470;2023-05-02T03:52:27;28.00;;;18.55;;
38972;SDS011;25333;50.762;4.470;2023-05-02T03:54:53;25.58;;;16.95;;
38972;SDS011;25333;50.762;4.470;2023-05-02T03:57:18;25.73;;;15.03;;
38972;SDS011;25333;50.762;4.470;2023-05-02T03:59:45;27.77;;;17.30;;
38972;SDS011;25333;50.762;4.470;2023-05-02T04:02:11;27.90;;;17.73;;
38972;SDS011;25333;50.762;4.470;2023-05-02T04:04:37;27.80;;;16.30;;
38972;SDS011;25333;50.762;4.470;2023-05-02T04:07:04;28.45;;;17.48;;
38972;SDS011;25333;50.762;4.470;2023-05-02T04:09:32;22.07;;;14.00;;
38972;SDS011;25333;50.762;4.470;2023-05-02T04:11:58;24.00;;;17.05;;
38972;SDS011;25333;50.762;4.470;2023-05-02T04:14:23;28.50;;;16.58;;
38972;SDS011;25333;50.762;4.470;2023-05-02T04:16:49;23.03;;;14.13;;
38972;SDS011;25333;50.762;4.470;2023-05-02T04:19:16;30.40;;;17.80;;
38972;SDS011;25333;50.762;4.470;2023-05-02T04:21:43;27.48;;;16.23;;
38972;SDS011;25333;50.762;4.470;2023-05-02T04:24:09;29.30;;;17.15;;
38972;SDS011;25333;50.762;4.470;2023-05-02T04:26:35;24.17;;;15.77;;
38972;SDS011;25333;50.762;4.470;2023-05-02T04:29:01;28.30;;;16.60;;
38972;SDS011;25333;50.762;4.470;2023-05-02T04:31:28;29.52;;;18.50;;
38972;SDS011;25333;50.762;4.470;2023-05-02T04:33:55;28.23;;;18.05;;
38972;SDS011;25333;50.762;4.470;2023-05-02T04:36:21;29.38;;;17.45;;
38972;SDS011;25333;50.762;4.470;2023-05-02T04:38:47;25.90;;;17.38;;
38972;SDS011;25333;50.762;4.470;2023-05-02T04:41:13;27.08;;;17.38;;
38972;SDS011;25333;50.762;4.470;2023-05-02T04:43:39;26.33;;;17.38;;
38972;SDS011;25333;50.762;4.470;2023-05-02T04:46:05;29.08;;;18.23;;
38972;SDS011;25333;50.762;4.470;2023-05-02T04:48:31;33.03;;;20.23;;
38972;SDS011;25333;50.762;4.470;2023-05-02T04:50:57;27.65;;;16.83;;
38972;SDS011;25333;50.762;4.470;2023-05-02T04:53:23;29.13;;;18.00;;
38972;SDS011;25333;50.762;4.470;2023-05-02T04:55:49;24.40;;;16.50;;
38972;SDS011;25333;50.762;4.470;2023-05-02T04:58:16;24.52;;;16.65;;
38972;SDS011;25333;50.762;4.470;2023-05-02T05:00:42;28.95;;;18.08;;
38972;SDS011;25333;50.762;4.470;2023-05-02T05:03:08;26.65;;;17.67;;
38972;SDS011;25333;50.762;4.470;2023-05-02T05:05:33;25.93;;;16.63;;
38972;SDS011;25333;50.762;4.470;2023-05-02T05:07:59;31.77;;;18.08;;
38972;SDS011;25333;50.762;4.470;2023-05-02T05:10:25;26.90;;;17.43;;
38972;SDS011;25333;50.762;4.470;2023-05-02T05:12:50;28.80;;;17.97;;
38972;SDS011;25333;50.762;4.470;2023-05-02T05:15:17;28.95;;;17.67;;
38972;SDS011;25333;50.762;4.470;2023-05-02T05:17:45;33.00;;;18.48;;
38972;SDS011;25333;50.762;4.470;2023-05-02T05:20:11;32.40;;;19.35;;
38972;SDS011;25333;50.762;4.470;2023-05-02T05:22:37;35.33;;;22.38;;
38972;SDS011;25333;50.762;4.470;2023-05-02T05:25:04;34.03;;;20.40;;
38972;SDS011;25333;50.762;4.470;2023-05-02T05:27:29;34.67;;;22.02;;
38972;SDS011;25333;50.762;4.470;2023-05-02T05:29:55;32.65;;;19.95;;
38972;SDS011;25333;50.762;4.470;2023-05-02T05:32:21;34.03;;;20.13;;
38972;SDS011;25333;50.762;4.470;2023-05-02T05:34:51;39.90;;;21.92;;
38972;SDS011;25333;50.762;4.470;2023-05-02T05:37:20;35.92;;;20.58;;
38972;SDS011;25333;50.762;4.470;2023-05-02T05:39:46;35.87;;;23.00;;
38972;SDS011;25333;50.762;4.470;2023-05-02T05:42:12;33.67;;;20.23;;
38972;SDS011;25333;50.762;4.470;2023-05-02T05:44:38;35.53;;;21.38;;
38972;SDS011;25333;50.762;4.470;2023-05-02T05:47:04;38.17;;;22.55;;
38972;SDS011;25333;50.762;4.470;2023-05-02T05:49:30;32.88;;;19.58;;
38972;SDS011;25333;50.762;4.470;2023-05-02T05:51:56;34.90;;;20.23;;
38972;SDS011;25333;50.762;4.470;2023-05-02T05:54:22;36.30;;;21.73;;
38972;SDS011;25333;50.762;4.470;2023-05-02T05:56:48;31.45;;;19.90;;
38972;SDS011;25333;50.762;4.470;2023-05-02T05:59:14;36.80;;;21.15;;
38972;SDS011;25333;50.762;4.470;2023-05-02T06:01:40;31.17;;;20.95;;
38972;SDS011;25333;50.762;4.470;2023-05-02T06:04:06;34.50;;;20.33;;
38972;SDS011;25333;50.762;4.470;2023-05-02T06:06:32;35.17;;;21.95;;
38972;SDS011;25333;50.762;4.470;2023-05-02T06:08:58;33.30;;;21.10;;
38972;SDS011;25333;50.762;4.470;2023-05-02T06:11:24;37.85;;;23.35;;
38972;SDS011;25333;50.762;4.470;2023-05-02T06:13:51;39.80;;;24.67;;
38972;SDS011;25333;50.762;4.470;2023-05-02T06:16:17;39.65;;;26.02;;
38972;SDS011;25333;50.762;4.470;2023-05-02T06:18:43;37.05;;;25.50;;
38972;SDS011;25333;50.762;4.470;2023-05-02T06:21:09;40.22;;;25.42;;
38972;SDS011;25333;50.762;4.470;2023-05-02T06:23:35;40.77;;;25.83;;
38972;SDS011;25333;50.762;4.470;2023-05-02T06:26:01;41.67;;;27.20;;
38972;SDS011;25333;50.762;4.470;2023-05-02T06:28:28;41.03;;;25.83;;
38972;SDS011;25333;50.762;4.470;2023-05-02T06:31:01;42.25;;;26.80;;
38972;SDS011;25333;50.762;4.470;2023-05-02T06:33:28;41.45;;;25.60;;
38972;SDS011;25333;50.762;4.470;2023-05-02T06:35:55;37.70;;;25.63;;
38972;SDS011;25333;50.762;4.470;2023-05-02T06:38:21;37.33;;;24.03;;
38972;SDS011;25333;50.762;4.470;2023-05-02T06:40:48;34.20;;;22.25;;
38972;SDS011;25333;50.762;4.470;2023-05-02T06:43:14;31.63;;;21.38;;
38972;SDS011;25333;50.762;4.470;2023-05-02T06:45:40;34.83;;;20.38;;
38972;SDS011;25333;50.762;4.470;2023-05-02T06:48:07;26.88;;;17.48;;
38972;SDS011;25333;50.762;4.470;2023-05-02T06:50:32;25.55;;;16.38;;
38972;SDS011;25333;50.762;4.470;2023-05-02T06:52:58;22.20;;;15.35;;
38972;SDS011;25333;50.762;4.470;2023-05-02T06:55:24;23.52;;;15.32;;
38972;SDS011;25333;50.762;4.470;2023-05-02T06:57:50;20.45;;;14.60;;
38972;SDS011;25333;50.762;4.470;2023-05-02T07:00:17;23.13;;;14.07;;
38972;SDS011;25333;50.762;4.470;2023-05-02T07:02:44;21.40;;;13.90;;
38972;SDS011;25333;50.762;4.470;2023-05-02T07:05:11;16.17;;;12.47;;
38972;SDS011;25333;50.762;4.470;2023-05-02T07:07:37;21.27;;;13.07;;
38972;SDS011;25333;50.762;4.470;2023-05-02T07:10:03;16.02;;;10.93;;
38972;SDS011;25333;50.762;4.470;2023-05-02T07:12:29;15.30;;;9.80;;
38972;SDS011;25333;50.762;4.470;2023-05-02T07:14:55;14.75;;;7.63;;
38972;SDS011;25333;50.762;4.470;2023-05-02T07:17:20;11.90;;;7.70;;
38972;SDS011;25333;50.762;4.470;2023-05-02T07:19:47;10.50;;;7.85;;
38972;SDS011;25333;50.762;4.470;2023-05-02T07:22:12;10.30;;;7.18;;
38972;SDS011;25333;50.762;4.470;2023-05-02T07:24:41;12.67;;;7.47;;
38972;SDS011;25333;50.762;4.470;2023-05-02T07:27:10;9.65;;;6.00;;
38972;SDS011;25333;50.762;4.470;2023-05-02T07:29:37;9.68;;;6.80;;
38972;SDS011;25333;50.762;4.470;2023-05-02T07:32:03;12.33;;;7.67;;
38972;SDS011;25333;50.762;4.470;2023-05-02T07:34:30;9.95;;;6.93;;
38972;SDS011;25333;50.762;4.470;2023-05-02T07:36:56;13.40;;;9.27;;
38972;SDS011;25333;50.762;4.470;2023-05-02T07:39:23;14.05;;;8.70;;
38972;SDS011;25333;50.762;4.470;2023-05-02T07:41:52;12.77;;;7.70;;
38972;SDS011;25333;50.762;4.470;2023-05-02T07:44:18;11.38;;;9.07;;
38972;SDS011;25333;50.762;4.470;2023-05-02T07:46:44;11.43;;;8.27;;
38972;SDS011;25333;50.762;4.470;2023-05-02T07:49:10;10.20;;;8.15;;
38972;SDS011;25333;50.762;4.470;2023-05-02T07:51:35;12.20;;;8.30;;
38972;SDS011;25333;50.762;4.470;2023-05-02T07:54:01;13.43;;;9.13;;
38972;SDS011;25333;50.762;4.470;2023-05-02T07:56:27;14.37;;;8.73;;
38972;SDS011;25333;50.762;4.470;2023-05-02T07:58:54;13.45;;;8.48;;
38972;SDS011;25333;50.762;4.470;2023-05-02T08:01:19;12.27;;;8.33;;
38972;SDS011;25333;50.762;4.470;2023-05-02T08:03:45;11.23;;;8.57;;
38972;SDS011;25333;50.762;4.470;2023-05-02T08:06:13;15.07;;;10.77;;
38972;SDS011;25333;50.762;4.470;2023-05-02T08:08:39;16.40;;;9.73;;
38972;SDS011;25333;50.762;4.470;2023-05-02T08:11:06;14.52;;;9.82;;
38972;SDS011;25333;50.762;4.470;2023-05-02T08:13:33;15.53;;;9.40;;
38972;SDS011;25333;50.762;4.470;2023-05-02T08:15:59;15.70;;;10.52;;
38972;SDS011;25333;50.762;4.470;2023-05-02T08:18:26;14.10;;;10.52;;
38972;SDS011;25333;50.762;4.470;2023-05-02T08:20:54;13.63;;;10.07;;
38972;SDS011;25333;50.762;4.470;2023-05-02T08:23:24;13.70;;;9.77;;
38972;SDS011;25333;50.762;4.470;2023-05-02T08:25:50;13.02;;;8.75;;
38972;SDS011;25333;50.762;4.470;2023-05-02T08:28:16;14.57;;;9.80;;
38972;SDS011;25333;50.762;4.470;2023-05-02T08:30:42;11.77;;;8.85;;
38972;SDS011;25333;50.762;4.470;2023-05-02T08:33:09;15.90;;;9.50;;
38972;SDS011;25333;50.762;4.470;2023-05-02T08:35:35;13.15;;;8.73;;
38972;SDS011;25333;50.762;4.470;2023-05-02T08:38:01;11.95;;;8.38;;
38972;SDS011;25333;50.762;4.470;2023-05-02T08:40:26;11.95;;;8.73;;
38972;SDS011;25333;50.762;4.470;2023-05-02T08:42:52;13.38;;;7.78;;
38972;SDS011;25333;50.762;4.470;2023-05-02T08:45:19;11.00;;;7.90;;
38972;SDS011;25333;50.762;4.470;2023-05-02T08:47:47;14.57;;;9.07;;
38972;SDS011;25333;50.762;4.470;2023-05-02T08:50:14;15.43;;;10.80;;
38972;SDS011;25333;50.762;4.470;2023-05-02T08:52:43;16.50;;;11.33;;
38972;SDS011;25333;50.762;4.470;2023-05-02T08:55:11;13.90;;;10.63;;
38972;SDS011;25333;50.762;4.470;2023-05-02T08:57:37;12.98;;;10.05;;
38972;SDS011;25333;50.762;4.470;2023-05-02T09:00:04;12.75;;;8.90;;
38972;SDS011;25333;50.762;4.470;2023-05-02T09:05:18;11.10;;;7.00;;
38972;SDS011;25333;50.762;4.470;2023-05-02T09:07:47;10.27;;;5.45;;
38972;SDS011;25333;50.762;4.470;2023-05-02T09:10:14;8.10;;;3.38;;
38972;SDS011;25333;50.762;4.470;2023-05-02T09:12:40;3.50;;;1.93;;
38972;SDS011;25333;50.762;4.470;2023-05-02T09:15:10;5.20;;;2.95;;
38972;SDS011;25333;50.762;4.470;2023-05-02T09:17:44;3.65;;;2.55;;
38972;SDS011;25333;50.762;4.470;2023-05-02T09:20:12;5.18;;;3.13;;
38972;SDS011;25333;50.762;4.470;2023-05-02T09:22:40;4.90;;;1.88;;
38972;SDS011;25333;50.762;4.470;2023-05-02T09:25:16;3.50;;;2.20;;
38972;SDS011;25333;50.762;4.470;2023-05-02T09:27:53;4.57;;;1.90;;
38972;SDS011;25333;50.762;4.470;2023-05-02T09:32:50;6.10;;;2.13;;
38972;SDS011;25333;50.762;4.470;2023-05-02T09:35:19;3.63;;;1.90;;
38972;SDS011;25333;50.762;4.470;2023-05-02T09:37:55;3.75;;;1.88;;
38972;SDS011;25333;50.762;4.470;2023-05-02T09:40:23;3.40;;;2.08;;
38972;SDS011;25333;50.762;4.470;2023-05-02T09:42:49;8.73;;;2.57;;
38972;SDS011;25333;50.762;4.470;2023-05-02T09:45:20;3.38;;;1.50;;
38972;SDS011;25333;50.762;4.470;2023-05-02T09:47:47;4.33;;;2.23;;
38972;SDS011;25333;50.762;4.470;2023-05-02T09:50:30;6.07;;;2.50;;
38972;SDS011;25333;50.762;4.470;2023-05-02T09:53:01;3.92;;;2.38;;
38972;SDS011;25333;50.762;4.470;2023-05-02T09:55:30;4.47;;;2.63;;
38972;SDS011;25333;50.762;4.470;2023-05-02T09:57:57;6.97;;;3.28;;
38972;SDS011;25333;50.762;4.470;2023-05-02T10:00:36;5.18;;;3.03;;
38972;SDS011;25333;50.762;4.470;2023-05-02T10:03:09;4.90;;;3.45;;
38972;SDS011;25333;50.762;4.470;2023-05-02T10:05:36;4.20;;;3.60;;
38972;SDS011;25333;50.762;4.470;2023-05-02T10:08:06;6.38;;;3.65;;
38972;SDS011;25333;50.762;4.470;2023-05-02T10:10:35;6.72;;;4.07;;
38972;SDS011;25333;50.762;4.470;2023-05-02T10:13:02;5.53;;;4.30;;
38972;SDS011;25333;50.762;4.470;2023-05-02T10:15:29;5.57;;;4.05;;
38972;SDS011;25333;50.762;4.470;2023-05-02T10:17:58;6.03;;;4.10;;
38972;SDS011;25333;50.762;4.470;2023-05-02T10:20:28;4.40;;;3.85;;
38972;SDS011;25333;50.762;4.470;2023-05-02T10:22:59;6.65;;;4.30;;
38972;SDS011;25333;50.762;4.470;2023-05-02T10:25:28;4.68;;;3.90;;
38972;SDS011;25333;50.762;4.470;2023-05-02T10:27:57;7.40;;;5.13;;
38972;SDS011;25333;50.762;4.470;2023-05-02T10:30:24;5.80;;;5.10;;
38972;SDS011;25333;50.762;4.470;2023-05-02T10:32:52;7.97;;;5.13;;
38972;SDS011;25333;50.762;4.470;2023-05-02T10:35:20;6.47;;;5.07;;
38972;SDS011;25333;50.762;4.470;2023-05-02T10:37:48;5.80;;;5.18;;
38972;SDS011;25333;50.762;4.470;2023-05-02T10:40:15;6.70;;;5.03;;
38972;SDS011;25333;50.762;4.470;2023-05-02T10:42:41;5.22;;;4.10;;
38972;SDS011;25333;50.762;4.470;2023-05-02T10:45:28;6.10;;;4.65;;
38972;SDS011;25333;50.762;4.470;2023-05-02T10:48:17;4.35;;;3.95;;
38972;SDS011;25333;50.762;4.470;2023-05-02T10:50:46;7.25;;;4.68;;
38972;SDS011;25333;50.762;4.470;2023-05-02T10:53:55;5.32;;;3.78;;
38972;SDS011;25333;50.762;4.470;2023-05-02T10:58:33;5.75;;;4.43;;
38972;SDS011;25333;50.762;4.470;2023-05-02T11:04:01;8.63;;;4.45;;
38972;SDS011;25333;50.762;4.470;2023-05-02T11:06:30;4.55;;;3.63;;
38972;SDS011;25333;50.762;4.470;2023-05-02T11:09:42;6.27;;;4.00;;
38972;SDS011;25333;50.762;4.470;2023-05-02T11:11:49;6.68;;;4.15;;
38972;SDS011;25333;50.762;4.470;2023-05-02T11:19:25;3.83;;;3.28;;
38972;SDS011;25333;50.762;4.470;2023-05-02T11:21:52;6.40;;;3.00;;
38972;SDS011;25333;50.762;4.470;2023-05-02T11:24:41;5.43;;;3.35;;
38972;SDS011;25333;50.762;4.470;2023-05-02T11:30:06;4.72;;;3.20;;
38972;SDS011;25333;50.762;4.470;2023-05-02T11:37:51;4.13;;;3.38;;
38972;SDS011;25333;50.762;4.470;2023-05-02T11:40:18;4.70;;;3.17;;
38972;SDS011;25333;50.762;4.470;2023-05-02T11:42:45;4.75;;;3.08;;
38972;SDS011;25333;50.762;4.470;2023-05-02T11:45:13;5.53;;;3.37;;
38972;SDS011;25333;50.762;4.470;2023-05-02T11:47:39;7.28;;;3.85;;
38972;SDS011;25333;50.762;4.470;2023-05-02T11:50:06;5.65;;;4.03;;
38972;SDS011;25333;50.762;4.470;2023-05-02T11:52:40;6.65;;;4.82;;
38972;SDS011;25333;50.762;4.470;2023-05-02T11:55:09;4.23;;;3.80;;
38972;SDS011;25333;50.762;4.470;2023-05-02T11:57:37;5.05;;;3.58;;
38972;SDS011;25333;50.762;4.470;2023-05-02T12:00:05;7.90;;;4.07;;
38972;SDS011;25333;50.762;4.470;2023-05-02T12:02:39;6.28;;;3.78;;
38972;SDS011;25333;50.762;4.470;2023-05-02T12:05:08;5.55;;;4.70;;
38972;SDS011;25333;50.762;4.470;2023-05-02T12:07:42;7.30;;;4.25;;
38972;SDS011;25333;50.762;4.470;2023-05-02T12:10:09;6.00;;;4.13;;
38972;SDS011;25333;50.762;4.470;2023-05-02T12:12:36;6.45;;;4.30;;
38972;SDS011;25333;50.762;4.470;2023-05-02T12:15:04;5.00;;;3.55;;
38972;SDS011;25333;50.762;4.470;2023-05-02T12:17:31;4.50;;;3.90;;
38972;SDS011;25333;50.762;4.470;2023-05-02T12:19:58;5.97;;;3.92;;
38972;SDS011;25333;50.762;4.470;2023-05-02T12:22:24;6.43;;;3.97;;
38972;SDS011;25333;50.762;4.470;2023-05-02T12:24:51;5.63;;;4.13;;
38972;SDS011;25333;50.762;4.470;2023-05-02T12:27:19;5.93;;;4.90;;
38972;SDS011;25333;50.762;4.470;2023-05-02T12:29:46;4.88;;;3.47;;
38972;SDS011;25333;50.762;4.470;2023-05-02T12:32:13;9.32;;;4.63;;
38972;SDS011;25333;50.762;4.470;2023-05-02T12:34:44;9.32;;;4.53;;
38972;SDS011;25333;50.762;4.470;2023-05-02T12:37:11;4.97;;;4.18;;
38972;SDS011;25333;50.762;4.470;2023-05-02T12:39:38;6.03;;;3.97;;
38972;SDS011;25333;50.762;4.470;2023-05-02T12:42:09;6.93;;;4.15;;
38972;SDS011;25333;50.762;4.470;2023-05-02T12:44:36;4.13;;;3.67;;
38972;SDS011;25333;50.762;4.470;2023-05-02T12:47:03;4.63;;;3.42;;
38972;SDS011;25333;50.762;4.470;2023-05-02T12:49:29;4.80;;;3.45;;
38972;SDS011;25333;50.762;4.470;2023-05-02T12:51:55;5.55;;;2.78;;
38972;SDS011;25333;50.762;4.470;2023-05-02T12:54:22;5.78;;;3.40;;
38972;SDS011;25333;50.762;4.470;2023-05-02T12:56:48;5.38;;;3.55;;
38972;SDS011;25333;50.762;4.470;2023-05-02T13:01:50;5.15;;;3.05;;
38972;SDS011;25333;50.762;4.470;2023-05-02T13:04:17;4.50;;;2.58;;
38972;SDS011;25333;50.762;4.470;2023-05-02T13:06:42;6.88;;;2.63;;
38972;SDS011;25333;50.762;4.470;2023-05-02T13:09:11;5.85;;;3.30;;
38972;SDS011;25333;50.762;4.470;2023-05-02T13:11:40;8.25;;;3.28;;
38972;SDS011;25333;50.762;4.470;2023-05-02T13:14:06;4.03;;;2.60;;
38972;SDS011;25333;50.762;4.470;2023-05-02T13:16:32;7.27;;;3.70;;
38972;SDS011;25333;50.762;4.470;2023-05-02T13:19:03;4.93;;;2.35;;
38972;SDS011;25333;50.762;4.470;2023-05-02T13:21:29;5.10;;;3.42;;
38972;SDS011;25333;50.762;4.470;2023-05-02T13:23:57;6.65;;;3.55;;
38972;SDS011;25333;50.762;4.470;2023-05-02T13:26:23;5.25;;;2.97;;
38972;SDS011;25333;50.762;4.470;2023-05-02T13:28:49;4.60;;;3.23;;
38972;SDS011;25333;50.762;4.470;2023-05-02T13:31:17;4.63;;;3.08;;
38972;SDS011;25333;50.762;4.470;2023-05-02T13:33:45;5.90;;;2.85;;
38972;SDS011;25333;50.762;4.470;2023-05-02T13:36:11;6.73;;;3.30;;
38972;SDS011;25333;50.762;4.470;2023-05-02T13:38:37;6.70;;;2.78;;
38972;SDS011;25333;50.762;4.470;2023-05-02T13:41:02;4.65;;;3.10;;
38972;SDS011;25333;50.762;4.470;2023-05-02T13:43:28;6.83;;;3.50;;
38972;SDS011;25333;50.762;4.470;2023-05-02T13:45:54;5.57;;;3.15;;
38972;SDS011;25333;50.762;4.470;2023-05-02T13:48:20;5.63;;;3.13;;
38972;SDS011;25333;50.762;4.470;2023-05-02T13:50:47;7.38;;;3.78;;
38972;SDS011;25333;50.762;4.470;2023-05-02T13:53:13;4.85;;;2.67;;
38972;SDS011;25333;50.762;4.470;2023-05-02T13:55:39;5.53;;;2.47;;
38972;SDS011;25333;50.762;4.470;2023-05-02T13:58:09;6.90;;;2.30;;
38972;SDS011;25333;50.762;4.470;2023-05-02T14:00:34;5.57;;;2.70;;
38972;SDS011;25333;50.762;4.470;2023-05-02T14:03:02;5.03;;;2.63;;
38972;SDS011;25333;50.762;4.470;2023-05-02T14:05:27;3.83;;;2.47;;
38972;SDS011;25333;50.762;4.470;2023-05-02T14:07:53;5.10;;;2.50;;
38972;SDS011;25333;50.762;4.470;2023-05-02T14:10:19;4.38;;;2.53;;
38972;SDS011;25333;50.762;4.470;2023-05-02T14:12:44;6.57;;;3.28;;
38972;SDS011;25333;50.762;4.470;2023-05-02T14:15:12;5.22;;;2.72;;
38972;SDS011;25333;50.762;4.470;2023-05-02T14:17:38;4.90;;;2.90;;
38972;SDS011;25333;50.762;4.470;2023-05-02T14:20:04;5.47;;;2.13;;
38972;SDS011;25333;50.762;4.470;2023-05-02T14:22:35;6.15;;;3.40;;
38972;SDS011;25333;50.762;4.470;2023-05-02T14:25:02;10.35;;;3.78;;
38972;SDS011;25333;50.762;4.470;2023-05-02T14:27:28;5.33;;;3.40;;
38972;SDS011;25333;50.762;4.470;2023-05-02T14:29:54;4.47;;;2.90;;
38972;SDS011;25333;50.762;4.470;2023-05-02T14:32:22;5.35;;;2.95;;
38972;SDS011;25333;50.762;4.470;2023-05-02T14:34:48;5.65;;;3.25;;
38972;SDS011;25333;50.762;4.470;2023-05-02T14:37:13;7.45;;;2.58;;
38972;SDS011;25333;50.762;4.470;2023-05-02T14:39:40;6.13;;;2.45;;
38972;SDS011;25333;50.762;4.470;2023-05-02T14:42:09;6.15;;;2.45;;
38972;SDS011;25333;50.762;4.470;2023-05-02T14:44:36;5.47;;;2.88;;
38972;SDS011;25333;50.762;4.470;2023-05-02T14:47:02;5.75;;;2.78;;
38972;SDS011;25333;50.762;4.470;2023-05-02T14:49:27;4.85;;;2.72;;
38972;SDS011;25333;50.762;4.470;2023-05-02T14:51:54;6.83;;;2.33;;
38972;SDS011;25333;50.762;4.470;2023-05-02T14:54:24;4.05;;;2.05;;
38972;SDS011;25333;50.762;4.470;2023-05-02T14:56:51;3.58;;;1.88;;
38972;SDS011;25333;50.762;4.470;2023-05-02T14:59:18;3.00;;;1.90;;
38972;SDS011;25333;50.762;4.470;2023-05-02T15:01:45;9.93;;;2.45;;
38972;SDS011;25333;50.762;4.470;2023-05-02T15:04:10;4.60;;;2.10;;
38972;SDS011;25333;50.762;4.470;2023-05-02T15:06:36;7.68;;;2.72;;
38972;SDS011;25333;50.762;4.470;2023-05-02T15:09:02;5.55;;;2.30;;
38972;SDS011;25333;50.762;4.470;2023-05-02T15:11:29;5.23;;;2.27;;
38972;SDS011;25333;50.762;4.470;2023-05-02T15:13:54;4.18;;;2.53;;
38972;SDS011;25333;50.762;4.470;2023-05-02T15:16:20;6.73;;;2.67;;
38972;SDS011;25333;50.762;4.470;2023-05-02T15:18:46;4.38;;;2.90;;
38972;SDS011;25333;50.762;4.470;2023-05-02T15:21:11;3.92;;;2.03;;
38972;SDS011;25333;50.762;4.470;2023-05-02T15:23:37;3.93;;;2.07;;
38972;SDS011;25333;50.762;4.470;2023-05-02T15:26:03;4.77;;;2.23;;
38972;SDS011;25333;50.762;4.470;2023-05-02T15:28:28;6.57;;;3.28;;
38972;SDS011;25333;50.762;4.470;2023-05-02T15:30:55;4.07;;;2.40;;